Terminal Aerodrome Forecast
Issued by NWS

Home | Current Version | Previous Version | Text Only | Print | Product List | Glossary On
Versions: 1 2 3 4 5 6 7 8 9 10 11 12 13 14 15
546
FTUS44 KEPZ 231731
TAFTCS
TAF
KTCS 231731Z 2318/2418 19013KT P6SM FEW250
     FM232000 21015G25KT P6SM SCT140 SCT250
     FM232300 25017G27KT P6SM VCSH SCT050 BKN100=

USA.gov is the U.S. government's official web portal to all federal, state and local government web resources and services.